Quick Links (Output Below):   Max & Min Temps   /   Climate Reports   /   Zone Forecasts
River Forecasts   /   Forestry Forecasts   /   Aviation Forecasts   /   Radars   /   Features

Terminal Aerodrome Forecast (El Dorado)

Pick a Site:
Arkadelphia | El Dorado | Fayetteville | Fort Smith | Harrison | Highfill | Hot Springs | Jonesboro
Little Rock | Monticello | Mountain Home | Pine Bluff | Texarkana
 Forecast 

KELD 281314Z 2813/2912 36008KT P6SM SCT050 SCT100 BKN250
     FM290000 34004KT P6SM SCT250=


 Latest METARs (Observations) 
How to Decode METARs
16Z KELD 281553Z AUTO 01006KT 10SM CLR 30/20 A3012 RMK AO2 SLP195
         T03000200
         
15Z KELD 281453Z AUTO 36009KT 10SM CLR 29/21 A3011 RMK AO2 SLP193
         T02940211 50009
         
14Z KELD 281353Z AUTO 35005KT 10SM BKN060 28/22 A3012 RMK AO2 SLP197
         T02830217
         
13Z KELD 281253Z AUTO 02005KT 10SM BKN060 27/22 A3010 RMK AO2 SLP190
         T02720217
         
12Z KELD 281153Z AUTO 00000KT 10SM OVC047 26/24 A3008 RMK AO2 LTG DSNT
         SE AND S SLP184 T02610239 10267 20256 53024
         
11Z KELD 281053Z AUTO 24003KT 10SM BKN039 26/24 A3005 RMK AO2 LTG DSNT
         E-SW SLP171 T02560239
         
10Z KELD 280953Z AUTO 30007KT 10SM VCTS SCT049 BKN065 26/23 A3001 RMK
         AO2 LTG DSNT ALQDS SLP158 T02610233
         
09Z KELD 280853Z AUTO 26003KT 10SM BKN100 26/23 A3002 RMK AO2 LTG DSNT
         NE SLP159 T02610228 53003
         
08Z KELD 280753Z AUTO 24004KT 10SM CLR 26/23 A3000 RMK AO2 SLP154
         T02610233
         
07Z KELD 280653Z AUTO 22004KT 10SM SCT060 26/24 A3001 RMK AO2 SLP159
         T02610239
         
***** Today's Observations (Above) *****


Back to Main Page
http://www.srh.noaa.gov/lzk/qfcst.php

USA.gov is the U.S. government's official web portal to all federal, state and local government web resources and services.